createdAt,value
2023-02-13T00:00:39.601Z,8.10
2023-02-13T00:03:06.461Z,8.10
2023-02-13T00:05:33.350Z,8.10
2023-02-13T00:08:00.122Z,8.10
2023-02-13T00:10:27.030Z,8.10
2023-02-13T00:12:53.889Z,8.10
2023-02-13T00:15:20.865Z,8.10
2023-02-13T00:17:47.666Z,8.10
2023-02-13T00:20:14.790Z,8.00
2023-02-13T00:22:41.597Z,8.10
2023-02-13T00:25:09.365Z,8.10
2023-02-13T00:27:36.279Z,8.10
2023-02-13T00:30:04.691Z,8.10
2023-02-13T00:32:31.839Z,8.10
2023-02-13T00:34:58.753Z,8.10
2023-02-13T00:37:26.281Z,8.10
2023-02-13T00:39:53.450Z,8.10
2023-02-13T00:42:24.013Z,8.00
2023-02-13T00:44:51.044Z,8.10
2023-02-13T00:47:18.214Z,8.20
2023-02-13T00:49:45.410Z,8.20
2023-02-13T00:52:12.670Z,8.20
2023-02-13T00:54:39.456Z,8.10
2023-02-13T00:57:06.364Z,8.10
2023-02-13T00:59:33.242Z,8.10
2023-02-13T01:02:00.736Z,8.10
2023-02-13T01:04:27.583Z,8.20
2023-02-13T01:06:57.538Z,8.10
2023-02-13T01:09:25.412Z,8.10
2023-02-13T01:11:52.367Z,8.10
2023-02-13T01:14:19.201Z,8.10
2023-02-13T01:16:47.579Z,8.10
2023-02-13T01:19:14.433Z,8.10
2023-02-13T01:21:42.726Z,8.10
2023-02-13T01:24:09.701Z,8.10
2023-02-13T01:26:36.573Z,8.10
2023-02-13T01:29:03.440Z,8.10
2023-02-13T01:31:30.328Z,8.10
2023-02-13T01:33:59.555Z,8.10
2023-02-13T01:36:27.024Z,8.10
2023-02-13T01:38:58.374Z,8.00
2023-02-13T01:41:27.846Z,8.00
2023-02-13T01:44:01.113Z,8.00
2023-02-13T01:46:40.645Z,8.00
2023-02-13T01:49:25.878Z,8.00
2023-02-13T01:51:56.444Z,8.00
2023-02-13T01:54:32.940Z,8.00
2023-02-13T01:57:14.682Z,8.00
2023-02-13T01:59:53.202Z,8.00
2023-02-13T02:02:21.098Z,8.00
2023-02-13T02:04:48.853Z,8.00
2023-02-13T02:07:27.414Z,8.00
2023-02-13T02:10:06.777Z,8.00
2023-02-13T02:13:01.559Z,8.00
2023-02-13T02:15:29.119Z,8.00
2023-02-13T02:17:56.077Z,8.00
2023-02-13T02:21:00.394Z,8.00
2023-02-13T02:23:51.251Z,8.00
2023-02-13T02:26:32.989Z,8.00
2023-02-13T02:29:24.835Z,8.00
2023-02-13T02:32:31.226Z,8.00
2023-02-13T02:35:35.732Z,8.00
2023-02-13T02:38:24.677Z,8.00
2023-02-13T02:41:41.764Z,8.00
2023-02-13T02:44:38.964Z,8.10
2023-02-13T02:48:14.812Z,8.00
2023-02-13T02:50:42.876Z,8.00
2023-02-13T02:53:21.910Z,8.00
2023-02-13T02:55:55.525Z,8.00
2023-02-13T02:58:55.255Z,8.00
2023-02-13T03:01:48.575Z,8.00
2023-02-13T03:04:50.777Z,8.10
2023-02-13T03:07:20.011Z,8.00
2023-02-13T03:10:29.255Z,8.00
2023-02-13T03:13:20.772Z,8.00
2023-02-13T03:16:10.849Z,8.00
2023-02-13T03:19:08.774Z,7.90
2023-02-13T03:22:17.001Z,7.90
2023-02-13T03:25:18.691Z,7.90
2023-02-13T03:28:20.108Z,7.90
2023-02-13T03:31:06.438Z,7.90
2023-02-13T03:34:12.998Z,8.00
2023-02-13T03:37:21.363Z,7.90
2023-02-13T03:40:12.805Z,7.90
2023-02-13T03:42:48.653Z,7.90
2023-02-13T03:45:43.441Z,7.90
2023-02-13T03:48:32.936Z,7.90
2023-02-13T03:51:03.183Z,7.90
2023-02-13T03:53:34.737Z,7.90
2023-02-13T03:56:21.624Z,7.90
2023-02-13T03:59:17.014Z,8.00
2023-02-13T04:02:11.313Z,7.90
2023-02-13T04:04:55.810Z,8.00
2023-02-13T04:07:32.195Z,7.90
2023-02-13T04:10:14.228Z,7.90
2023-02-13T04:13:05.167Z,7.90
2023-02-13T04:15:48.887Z,7.80
2023-02-13T04:18:25.104Z,7.90
2023-02-13T04:20:52.342Z,7.90
2023-02-13T04:23:20.455Z,7.90
2023-02-13T04:25:51.967Z,7.90
2023-02-13T04:28:18.893Z,7.90
2023-02-13T04:30:45.839Z,7.90
2023-02-13T04:33:12.712Z,7.80
2023-02-13T04:35:39.506Z,7.80
2023-02-13T04:38:06.372Z,7.90
2023-02-13T04:40:33.359Z,7.90
2023-02-13T04:43:00.432Z,7.80
2023-02-13T04:45:27.304Z,7.80
2023-02-13T04:47:56.245Z,7.80
2023-02-13T04:50:24.406Z,7.80
2023-02-13T04:52:57.237Z,7.90
2023-02-13T04:55:26.111Z,7.90
2023-02-13T04:57:54.599Z,7.90
2023-02-13T05:00:23.805Z,7.80
2023-02-13T05:02:50.886Z,7.80
2023-02-13T05:05:17.869Z,7.80
2023-02-13T05:07:45.052Z,7.90
2023-02-13T05:10:12.298Z,7.90
2023-02-13T05:12:39.528Z,7.90
2023-02-13T05:15:07.178Z,7.90
2023-02-13T05:17:33.953Z,7.90
2023-02-13T05:20:01.112Z,7.90
2023-02-13T05:22:46.761Z,7.90
2023-02-13T05:25:13.604Z,7.90
2023-02-13T05:27:40.607Z,7.90
2023-02-13T05:30:08.374Z,7.80
2023-02-13T05:32:35.228Z,7.90
2023-02-13T05:35:04.305Z,7.90
2023-02-13T05:37:32.061Z,7.90
2023-02-13T05:39:58.809Z,7.90
2023-02-13T05:42:25.669Z,7.90
2023-02-13T05:44:52.448Z,7.90
2023-02-13T05:47:19.269Z,7.90
2023-02-13T05:49:46.090Z,7.90
2023-02-13T05:52:12.943Z,7.90
2023-02-13T05:54:40.102Z,7.90
2023-02-13T05:57:06.914Z,7.90
2023-02-13T05:59:33.785Z,7.90
2023-02-13T06:02:00.620Z,7.90
2023-02-13T06:04:27.431Z,7.90
2023-02-13T06:06:54.325Z,8.00
2023-02-13T06:09:21.724Z,7.90
2023-02-13T06:11:48.752Z,7.90
2023-02-13T06:14:15.887Z,7.90
2023-02-13T06:16:42.772Z,7.90
2023-02-13T06:19:09.813Z,7.90
2023-02-13T06:21:38.393Z,7.90
2023-02-13T06:24:07.831Z,7.90
2023-02-13T06:26:35.400Z,7.90
2023-02-13T06:29:02.223Z,8.00
2023-02-13T06:31:29.144Z,8.00
2023-02-13T06:33:56.288Z,8.00
2023-02-13T06:36:23.105Z,7.90
2023-02-13T06:38:50.024Z,7.90
2023-02-13T06:41:16.831Z,7.90
2023-02-13T06:43:43.625Z,8.00
2023-02-13T06:46:10.535Z,7.90
2023-02-13T06:48:37.595Z,8.00
2023-02-13T06:51:04.930Z,8.00
2023-02-13T06:53:31.841Z,8.00
2023-02-13T06:55:58.739Z,8.00
2023-02-13T06:58:26.489Z,8.00
2023-02-13T07:00:54.022Z,8.00
2023-02-13T07:03:21.508Z,8.00
2023-02-13T07:05:51.783Z,8.00
2023-02-13T07:08:19.461Z,8.00
2023-02-13T07:10:46.282Z,8.00
2023-02-13T07:13:13.210Z,7.90
2023-02-13T07:15:40.126Z,8.00
2023-02-13T07:18:07.338Z,7.90
2023-02-13T07:20:34.370Z,7.90
2023-02-13T07:23:04.191Z,7.90
2023-02-13T07:25:31.361Z,8.00
2023-02-13T07:28:05.982Z,8.00
2023-02-13T07:30:34.454Z,8.00
2023-02-13T07:33:05.334Z,8.00
2023-02-13T07:35:32.761Z,8.10
2023-02-13T07:38:00.665Z,8.00
2023-02-13T07:40:27.733Z,8.00
2023-02-13T07:42:54.904Z,8.00
2023-02-13T07:45:22.105Z,8.00
2023-02-13T07:47:48.939Z,8.00
2023-02-13T07:50:16.162Z,8.00
2023-02-13T07:52:42.936Z,8.00
2023-02-13T07:55:11.514Z,8.00
2023-02-13T07:57:38.409Z,8.10
2023-02-13T08:00:06.277Z,8.00
2023-02-13T08:02:38.704Z,8.00
2023-02-13T08:05:06.317Z,8.00
2023-02-13T08:07:33.592Z,8.10
2023-02-13T08:10:18.989Z,8.10
2023-02-13T08:12:46.445Z,8.10
2023-02-13T08:15:15.810Z,8.10
2023-02-13T08:17:42.592Z,8.20
2023-02-13T08:20:10.429Z,8.10
2023-02-13T08:22:38.758Z,8.10
2023-02-13T08:25:06.897Z,8.10
2023-02-13T08:27:33.983Z,8.20
2023-02-13T08:30:01.880Z,8.20
2023-02-13T08:32:28.848Z,8.20
2023-02-13T08:34:55.600Z,8.30
2023-02-13T08:37:23.145Z,8.30
2023-02-13T08:39:50.405Z,8.30
2023-02-13T08:42:17.314Z,8.40
2023-02-13T08:44:44.933Z,8.30
2023-02-13T08:47:11.964Z,8.30
2023-02-13T08:49:38.879Z,8.40
2023-02-13T08:52:05.918Z,8.50
2023-02-13T08:54:36.055Z,8.50
2023-02-13T08:57:03.521Z,8.60
2023-02-13T08:59:30.358Z,8.60
2023-02-13T09:01:58.181Z,8.50
2023-02-13T09:04:25.244Z,8.60
2023-02-13T09:06:52.041Z,8.50
2023-02-13T09:09:19.298Z,8.70
2023-02-13T09:11:46.149Z,8.80
2023-02-13T09:14:12.953Z,8.80
2023-02-13T09:16:39.865Z,8.90
2023-02-13T09:19:07.517Z,9.00
2023-02-13T09:21:34.413Z,9.00
2023-02-13T09:24:01.298Z,9.10
2023-02-13T09:26:28.182Z,9.20
2023-02-13T09:28:54.985Z,9.10
2023-02-13T09:31:24.051Z,9.10
2023-02-13T09:33:51.031Z,9.20
2023-02-13T09:36:22.157Z,9.20
2023-02-13T09:38:56.835Z,9.20
2023-02-13T09:41:41.693Z,9.30
2023-02-13T09:44:38.858Z,9.30
2023-02-13T09:47:34.512Z,9.40
2023-02-13T09:50:14.515Z,9.50
2023-02-13T09:52:45.602Z,9.60
2023-02-13T09:55:20.225Z,9.40
2023-02-13T09:58:20.548Z,9.40
2023-02-13T10:00:53.988Z,9.60
2023-02-13T10:03:29.699Z,10.00
2023-02-13T10:06:06.088Z,10.40
2023-02-13T10:09:22.602Z,10.60
2023-02-13T10:12:13.703Z,10.70
2023-02-13T10:15:35.344Z,10.80
2023-02-13T10:18:10.948Z,10.50
2023-02-13T10:20:51.315Z,10.70
2023-02-13T10:23:34.861Z,11.00
2023-02-13T10:26:12.381Z,11.00
2023-02-13T10:28:46.562Z,10.50
2023-02-13T10:31:22.299Z,10.50
2023-02-13T10:34:03.566Z,10.90
2023-02-13T10:36:37.519Z,11.10
2023-02-13T10:39:07.109Z,11.10
2023-02-13T10:42:16.308Z,11.20
2023-02-13T10:45:08.399Z,11.20
2023-02-13T10:47:38.494Z,11.30
2023-02-13T10:50:33.124Z,11.30
2023-02-13T10:53:33.852Z,11.30
2023-02-13T10:56:34.369Z,11.30
2023-02-13T10:59:38.017Z,10.90
2023-02-13T11:02:30.327Z,11.00
2023-02-13T11:05:22.048Z,11.20
2023-02-13T11:07:49.953Z,11.60
2023-02-13T11:10:20.104Z,11.50
2023-02-13T11:12:47.981Z,11.50
2023-02-13T11:15:32.829Z,11.30
2023-02-13T11:18:23.160Z,11.60
2023-02-13T11:21:14.250Z,11.80
2023-02-13T11:23:56.171Z,11.90
2023-02-13T11:26:36.994Z,11.80
2023-02-13T11:29:22.203Z,11.90
2023-02-13T11:32:17.523Z,12.00
2023-02-13T11:34:50.523Z,12.00
2023-02-13T11:37:31.517Z,11.90
2023-02-13T11:40:15.049Z,12.10
2023-02-13T11:42:43.734Z,12.00
2023-02-13T11:45:26.232Z,12.20
2023-02-13T11:47:56.072Z,12.20
2023-02-13T11:50:35.034Z,12.20
2023-02-13T11:53:16.898Z,12.20
2023-02-13T11:56:04.305Z,12.20
2023-02-13T11:58:31.828Z,12.10
2023-02-13T12:01:11.308Z,12.10
2023-02-13T12:03:38.892Z,12.10
2023-02-13T12:06:14.067Z,12.10
2023-02-13T12:08:48.126Z,12.10
2023-02-13T12:11:36.695Z,12.00
2023-02-13T12:14:03.594Z,12.10
2023-02-13T12:16:40.657Z,12.00
2023-02-13T12:19:21.045Z,12.00
2023-02-13T12:22:15.491Z,12.10
2023-02-13T12:25:14.558Z,12.00
2023-02-13T12:28:23.143Z,12.00
2023-02-13T12:31:08.582Z,12.10
2023-02-13T12:34:09.297Z,12.00
2023-02-13T12:36:47.405Z,12.00
2023-02-13T12:39:39.898Z,11.90
2023-02-13T12:42:34.277Z,11.90
2023-02-13T12:45:28.070Z,11.80
2023-02-13T12:48:16.425Z,11.90
2023-02-13T12:51:24.801Z,12.00
2023-02-13T12:54:18.060Z,12.00
2023-02-13T12:57:10.749Z,11.90
2023-02-13T13:00:18.941Z,12.00
2023-02-13T13:03:00.729Z,12.20
2023-02-13T13:06:12.515Z,12.30
2023-02-13T13:09:01.053Z,12.20
2023-02-13T13:12:05.152Z,12.30
2023-02-13T13:14:40.773Z,12.40
2023-02-13T13:17:22.568Z,12.40
2023-02-13T13:20:52.119Z,12.30
2023-02-13T13:23:30.831Z,12.40
2023-02-13T13:26:44.763Z,12.20
2023-02-13T13:29:24.810Z,12.10
2023-02-13T13:32:01.453Z,12.10
2023-02-13T13:34:31.369Z,12.30
2023-02-13T13:37:33.905Z,12.20
2023-02-13T13:40:28.665Z,12.30
2023-02-13T13:43:18.054Z,12.30
2023-02-13T13:46:08.149Z,12.40
2023-02-13T13:49:10.092Z,12.40
2023-02-13T13:51:37.529Z,12.40
2023-02-13T13:54:07.026Z,12.30
2023-02-13T13:57:02.095Z,12.20
2023-02-13T13:59:37.411Z,12.10
2023-02-13T14:02:44.807Z,12.20
2023-02-13T14:05:26.053Z,12.30
2023-02-13T14:07:59.159Z,12.30
2023-02-13T14:10:25.898Z,12.20
2023-02-13T14:12:58.885Z,12.20
2023-02-13T14:15:42.317Z,12.30
2023-02-13T14:18:14.724Z,12.30
2023-02-13T14:20:50.728Z,12.30
2023-02-13T14:23:42.584Z,12.20
2023-02-13T14:26:30.806Z,12.20
2023-02-13T14:29:11.843Z,12.30
2023-02-13T14:32:13.231Z,12.20
2023-02-13T14:34:40.937Z,12.20
2023-02-13T14:37:10.536Z,12.20
2023-02-13T14:39:41.901Z,12.20
2023-02-13T14:42:29.674Z,12.20
2023-02-13T14:45:00.394Z,12.20
2023-02-13T14:47:39.593Z,12.20
2023-02-13T14:50:14.756Z,12.30
2023-02-13T14:52:45.938Z,12.20
2023-02-13T14:55:55.500Z,12.20
2023-02-13T14:58:36.901Z,12.20
2023-02-13T15:01:24.826Z,12.10
2023-02-13T15:04:03.284Z,12.20
2023-02-13T15:06:38.524Z,12.20
2023-02-13T15:09:27.897Z,12.10
2023-02-13T15:11:54.781Z,12.10
2023-02-13T15:14:34.936Z,12.10
2023-02-13T15:17:19.417Z,12.10
2023-02-13T15:19:50.146Z,12.20
2023-02-13T15:22:37.153Z,12.20
2023-02-13T15:25:07.123Z,12.10
2023-02-13T15:27:43.634Z,12.10
2023-02-13T15:30:23.646Z,12.00
2023-02-13T15:33:00.055Z,12.00
2023-02-13T15:35:35.124Z,12.00
2023-02-13T15:38:28.377Z,12.00
2023-02-13T15:41:04.585Z,12.00
2023-02-13T15:43:37.241Z,12.00
2023-02-13T15:46:26.176Z,12.00
2023-02-13T15:48:55.485Z,12.00
2023-02-13T15:51:29.726Z,12.00
2023-02-13T15:54:23.422Z,12.00
2023-02-13T15:56:52.922Z,12.00
2023-02-13T15:59:21.391Z,12.00
2023-02-13T16:01:50.897Z,11.90
2023-02-13T16:04:21.122Z,11.80
2023-02-13T16:06:50.584Z,11.80
2023-02-13T16:09:35.296Z,11.80
2023-02-13T16:12:25.252Z,11.80
2023-02-13T16:14:59.798Z,11.60
2023-02-13T16:17:33.391Z,11.60
2023-02-13T16:20:16.902Z,11.60
2023-02-13T16:22:56.125Z,11.50
2023-02-13T16:25:39.215Z,11.40
2023-02-13T16:28:23.625Z,11.40
2023-02-13T16:31:02.998Z,11.20
2023-02-13T16:33:32.125Z,11.10
2023-02-13T16:36:17.858Z,11.10
2023-02-13T16:38:48.018Z,11.10
2023-02-13T16:41:17.586Z,10.90
2023-02-13T16:43:58.284Z,10.90
2023-02-13T16:46:40.990Z,10.80
2023-02-13T16:49:10.573Z,10.70
2023-02-13T16:51:52.402Z,10.60
2023-02-13T16:54:38.082Z,10.50
2023-02-13T16:57:13.732Z,10.40
2023-02-13T16:59:53.965Z,10.20
2023-02-13T17:02:27.767Z,10.10
2023-02-13T17:04:54.523Z,10.10
2023-02-13T17:07:31.119Z,10.00
2023-02-13T17:10:22.627Z,9.90
2023-02-13T17:12:51.334Z,9.70
2023-02-13T17:15:23.845Z,9.50
2023-02-13T17:17:51.766Z,9.40
2023-02-13T17:20:29.058Z,9.40
2023-02-13T17:22:59.350Z,9.40
2023-02-13T17:25:32.847Z,9.30
2023-02-13T17:28:19.080Z,9.20
2023-02-13T17:30:48.514Z,9.20
2023-02-13T17:33:22.486Z,9.10
2023-02-13T17:35:49.868Z,9.00
2023-02-13T17:38:17.386Z,8.90
2023-02-13T17:40:45.438Z,8.90
2023-02-13T17:43:15.242Z,8.80
2023-02-13T17:45:42.870Z,8.70
2023-02-13T17:48:09.777Z,8.70
2023-02-13T17:50:37.473Z,8.70
2023-02-13T17:53:08.493Z,8.60
2023-02-13T17:55:36.076Z,8.50
2023-02-13T17:58:03.002Z,8.50
2023-02-13T18:00:33.681Z,8.50
2023-02-13T18:03:01.179Z,8.30
2023-02-13T18:05:28.763Z,8.30
2023-02-13T18:07:55.881Z,8.30
2023-02-13T18:10:28.976Z,8.30
2023-02-13T18:13:03.884Z,8.30
2023-02-13T18:15:39.370Z,8.30
2023-02-13T18:18:06.357Z,8.20
2023-02-13T18:20:33.699Z,8.20
2023-02-13T18:23:00.707Z,8.10
2023-02-13T18:25:27.621Z,8.10
2023-02-13T18:27:55.280Z,8.10
2023-02-13T18:30:22.394Z,8.10
2023-02-13T18:32:58.792Z,8.10
2023-02-13T18:35:25.921Z,8.00
2023-02-13T18:37:53.033Z,8.10
2023-02-13T18:40:20.119Z,8.00
2023-02-13T18:42:47.005Z,7.90
2023-02-13T18:45:13.818Z,8.10
2023-02-13T18:47:40.720Z,8.00
2023-02-13T18:50:08.781Z,8.00
2023-02-13T18:52:36.235Z,8.00
2023-02-13T18:55:06.789Z,8.00
2023-02-13T18:57:33.964Z,7.90
2023-02-13T19:00:00.813Z,7.90
2023-02-13T19:02:27.756Z,7.90
2023-02-13T19:04:54.771Z,7.90
2023-02-13T19:07:21.690Z,8.00
2023-02-13T19:09:48.676Z,7.80
2023-02-13T19:12:15.439Z,7.80
2023-02-13T19:14:43.964Z,7.80
2023-02-13T19:17:10.810Z,7.90
2023-02-13T19:19:37.784Z,7.70
2023-02-13T19:22:04.690Z,7.70
2023-02-13T19:24:31.611Z,7.60
2023-02-13T19:26:58.524Z,7.60
2023-02-13T19:29:25.417Z,7.50
2023-02-13T19:31:52.248Z,7.50
2023-02-13T19:34:19.300Z,7.50
2023-02-13T19:36:46.192Z,7.50
2023-02-13T19:39:13.151Z,7.40
2023-02-13T19:41:44.017Z,7.40
2023-02-13T19:44:11.254Z,7.30
2023-02-13T19:46:38.740Z,7.10
2023-02-13T19:49:06.036Z,7.30
2023-02-13T19:51:34.867Z,7.30
2023-02-13T19:54:07.535Z,7.20
2023-02-13T19:56:40.044Z,7.00
2023-02-13T19:59:08.887Z,7.00
2023-02-13T20:01:35.798Z,6.90
2023-02-13T20:04:02.696Z,7.00
2023-02-13T20:06:36.547Z,6.90
2023-02-13T20:09:13.989Z,6.80
2023-02-13T20:11:42.825Z,6.70
2023-02-13T20:14:14.773Z,6.70
2023-02-13T20:16:42.947Z,6.60
2023-02-13T20:19:11.626Z,6.50
2023-02-13T20:21:39.173Z,6.50
2023-02-13T20:24:06.302Z,6.40
2023-02-13T20:26:34.578Z,6.30
2023-02-13T20:29:02.105Z,6.30
2023-02-13T20:31:30.676Z,6.30
2023-02-13T20:33:58.759Z,6.30
2023-02-13T20:36:29.848Z,6.20
2023-02-13T20:39:03.408Z,6.10
2023-02-13T20:41:33.561Z,6.10
2023-02-13T20:44:05.105Z,6.10
2023-02-13T20:46:35.102Z,6.00
2023-02-13T20:49:02.162Z,6.00
2023-02-13T20:51:29.552Z,6.00
2023-02-13T20:53:57.245Z,6.00
2023-02-13T20:56:26.510Z,5.90
2023-02-13T20:58:59.593Z,5.90
2023-02-13T21:01:32.151Z,5.90
2023-02-13T21:03:59.631Z,5.80
2023-02-13T21:06:32.250Z,5.80
2023-02-13T21:08:59.506Z,5.70
2023-02-13T21:11:28.299Z,5.70
2023-02-13T21:13:57.352Z,5.70
2023-02-13T21:16:28.764Z,5.60
2023-02-13T21:19:00.313Z,5.60
2023-02-13T21:21:31.510Z,5.60
2023-02-13T21:24:08.062Z,5.50
2023-02-13T21:26:35.939Z,5.40
2023-02-13T21:29:03.461Z,5.50
2023-02-13T21:31:36.395Z,5.40
2023-02-13T21:34:10.706Z,5.40
2023-02-13T21:36:38.978Z,5.30
2023-02-13T21:39:09.129Z,5.30
2023-02-13T21:41:38.884Z,5.30
2023-02-13T21:44:05.739Z,5.30
2023-02-13T21:46:33.920Z,5.10
2023-02-13T21:49:06.034Z,5.10
2023-02-13T21:51:35.628Z,5.10
2023-02-13T21:54:04.641Z,5.10
2023-02-13T21:56:37.933Z,5.00
2023-02-13T21:59:06.151Z,5.00
2023-02-13T22:01:54.507Z,5.00
2023-02-13T22:04:21.573Z,4.90
2023-02-13T22:06:51.401Z,4.90
2023-02-13T22:09:21.111Z,4.90
2023-02-13T22:11:49.502Z,4.90
2023-02-13T22:14:18.085Z,4.90
2023-02-13T22:16:45.978Z,4.80
2023-02-13T22:19:15.778Z,4.70
2023-02-13T22:21:43.181Z,4.70
2023-02-13T22:24:10.730Z,4.70
2023-02-13T22:26:40.741Z,4.70
2023-02-13T22:29:11.414Z,4.70
2023-02-13T22:31:38.724Z,4.70
2023-02-13T22:34:07.036Z,4.60
2023-02-13T22:36:40.451Z,4.50
2023-02-13T22:39:09.914Z,4.50
2023-02-13T22:41:37.430Z,4.50
2023-02-13T22:44:04.729Z,4.40
2023-02-13T22:46:33.764Z,4.40
2023-02-13T22:49:01.378Z,4.40
2023-02-13T22:51:36.003Z,4.40
2023-02-13T22:54:04.785Z,4.40
2023-02-13T22:56:32.393Z,4.30
2023-02-13T22:59:00.286Z,4.30
2023-02-13T23:01:29.467Z,4.20
2023-02-13T23:03:56.969Z,4.20
2023-02-13T23:06:25.246Z,4.20
2023-02-13T23:08:53.437Z,4.20
2023-02-13T23:11:43.135Z,4.10
2023-02-13T23:14:11.256Z,4.10
2023-02-13T23:16:58.665Z,4.10
2023-02-13T23:19:27.306Z,4.00
2023-02-13T23:21:54.404Z,4.10
2023-02-13T23:24:21.737Z,4.00
2023-02-13T23:26:48.643Z,4.00
2023-02-13T23:29:16.846Z,4.00
2023-02-13T23:31:43.782Z,4.00
2023-02-13T23:34:10.785Z,3.90
2023-02-13T23:36:37.960Z,3.80
2023-02-13T23:39:04.773Z,3.90
2023-02-13T23:41:31.610Z,3.90
2023-02-13T23:43:58.415Z,3.80
2023-02-13T23:46:25.337Z,3.70
2023-02-13T23:48:52.210Z,3.80
2023-02-13T23:51:21.116Z,3.70
2023-02-13T23:53:47.905Z,3.70
2023-02-13T23:56:14.921Z,3.70
2023-02-13T23:58:41.684Z,3.70
